createdAt,value
2022-10-06T00:00:32.116Z,12.30
2022-10-06T00:02:58.963Z,19.23
2022-10-06T00:05:25.717Z,14.95
2022-10-06T00:07:52.216Z,10.45
2022-10-06T00:10:18.818Z,13.15
2022-10-06T00:12:50.829Z,12.27
2022-10-06T00:15:21.519Z,13.27
2022-10-06T00:17:47.993Z,10.50
2022-10-06T00:20:14.552Z,10.43
2022-10-06T00:22:43.809Z,11.07
2022-10-06T00:25:12.960Z,11.25
2022-10-06T00:27:42.392Z,9.93
2022-10-06T00:30:14.327Z,10.20
2022-10-06T00:32:41.054Z,13.32
2022-10-06T00:35:08.366Z,9.20
2022-10-06T00:37:37.778Z,10.98
2022-10-06T00:40:05.311Z,10.97
2022-10-06T00:42:33.006Z,10.73
2022-10-06T00:45:05.972Z,14.48
2022-10-06T00:47:33.202Z,13.27
2022-10-06T00:50:00.812Z,10.23
2022-10-06T00:52:30.832Z,16.13
2022-10-06T00:55:00.493Z,12.20
2022-10-06T00:57:27.689Z,11.02
2022-10-06T00:59:54.332Z,10.60
2022-10-06T01:02:34.060Z,13.07
2022-10-06T01:05:01.425Z,13.43
2022-10-06T01:07:29.146Z,9.10
2022-10-06T01:09:56.715Z,12.43
2022-10-06T01:12:24.177Z,12.57
2022-10-06T01:14:50.724Z,13.07
2022-10-06T01:17:30.230Z,13.23
2022-10-06T01:20:00.889Z,13.30
2022-10-06T01:22:30.604Z,13.48
2022-10-06T01:24:57.881Z,12.20
2022-10-06T01:27:27.513Z,12.70
2022-10-06T01:29:55.706Z,12.53
2022-10-06T01:32:24.566Z,12.57
2022-10-06T01:34:51.018Z,11.85
2022-10-06T01:37:17.396Z,11.88
2022-10-06T01:39:43.897Z,10.60
2022-10-06T01:42:10.862Z,13.17
2022-10-06T01:44:37.272Z,11.88
2022-10-06T01:47:07.518Z,12.40
2022-10-06T01:49:34.121Z,11.00
2022-10-06T01:52:01.370Z,12.45
2022-10-06T01:54:28.126Z,14.57
2022-10-06T01:56:54.514Z,18.40
2022-10-06T01:59:21.021Z,13.70
2022-10-06T02:01:47.535Z,13.80
2022-10-06T02:04:14.186Z,12.70
2022-10-06T02:06:40.647Z,11.63
2022-10-06T02:09:07.103Z,10.63
2022-10-06T02:11:33.726Z,11.60
2022-10-06T02:14:00.118Z,10.40
2022-10-06T02:16:26.625Z,11.52
2022-10-06T02:18:53.052Z,10.17
2022-10-06T02:21:21.284Z,13.75
2022-10-06T02:23:48.215Z,10.13
2022-10-06T02:26:16.736Z,12.90
2022-10-06T02:28:44.246Z,11.98
2022-10-06T02:31:11.331Z,13.03
2022-10-06T02:33:38.522Z,15.80
2022-10-06T02:36:05.654Z,13.73
2022-10-06T02:38:32.752Z,12.43
2022-10-06T02:41:01.029Z,10.15
2022-10-06T02:43:27.849Z,12.23
2022-10-06T02:46:02.421Z,10.98
2022-10-06T02:48:30.243Z,10.55
2022-10-06T02:50:59.589Z,12.00
2022-10-06T02:53:26.374Z,13.25
2022-10-06T02:56:08.628Z,11.67
2022-10-06T02:58:35.073Z,11.15
2022-10-06T03:01:02.406Z,15.20
2022-10-06T03:03:29.061Z,13.68
2022-10-06T03:06:04.469Z,13.93
2022-10-06T03:08:31.364Z,14.80
2022-10-06T03:11:04.828Z,12.65
2022-10-06T03:13:31.524Z,11.45
2022-10-06T03:15:58.348Z,13.05
2022-10-06T03:18:24.938Z,13.05
2022-10-06T03:20:51.610Z,12.40
2022-10-06T03:23:18.049Z,14.85
2022-10-06T03:25:44.453Z,16.52
2022-10-06T03:28:10.909Z,13.15
2022-10-06T03:30:37.403Z,14.50
2022-10-06T03:33:03.813Z,16.03
2022-10-06T03:35:30.157Z,13.85
2022-10-06T03:37:58.901Z,10.98
2022-10-06T03:40:25.298Z,14.57
2022-10-06T03:42:51.707Z,16.50
2022-10-06T03:45:18.104Z,15.57
2022-10-06T03:47:44.532Z,9.98
2022-10-06T03:50:10.924Z,12.77
2022-10-06T03:52:37.304Z,14.77
2022-10-06T03:55:04.007Z,16.60
2022-10-06T03:57:30.446Z,13.40
2022-10-06T03:59:56.809Z,16.23
2022-10-06T04:02:23.303Z,13.88
2022-10-06T04:04:49.776Z,11.73
2022-10-06T04:07:16.184Z,14.75
2022-10-06T04:09:42.661Z,13.57
2022-10-06T04:12:09.006Z,14.43
2022-10-06T04:14:35.567Z,15.02
2022-10-06T04:17:01.973Z,15.38
2022-10-06T04:19:28.400Z,14.10
2022-10-06T04:21:55.535Z,11.80
2022-10-06T04:24:21.925Z,13.80
2022-10-06T04:26:48.751Z,14.68
2022-10-06T04:29:15.878Z,12.38
2022-10-06T04:31:42.823Z,15.63
2022-10-06T04:34:10.989Z,12.60
2022-10-06T04:36:40.017Z,15.52
2022-10-06T04:39:10.251Z,19.25
2022-10-06T04:41:39.032Z,17.10
2022-10-06T04:44:06.258Z,12.93
2022-10-06T04:46:49.436Z,12.50
2022-10-06T04:49:19.974Z,15.32
2022-10-06T04:51:48.593Z,13.73
2022-10-06T04:54:15.112Z,15.35
2022-10-06T04:56:41.514Z,14.45
2022-10-06T04:59:07.875Z,14.70
2022-10-06T05:01:36.740Z,13.32
2022-10-06T05:04:04.937Z,15.32
2022-10-06T05:06:37.274Z,16.52
2022-10-06T05:09:06.720Z,14.00
2022-10-06T05:11:33.168Z,16.67
2022-10-06T05:13:59.978Z,13.52
2022-10-06T05:16:28.656Z,19.13
2022-10-06T05:18:55.329Z,18.13
2022-10-06T05:21:28.218Z,15.48
2022-10-06T05:23:54.702Z,18.83
2022-10-06T05:26:24.280Z,14.75
2022-10-06T05:28:50.937Z,26.35
2022-10-06T05:31:22.567Z,18.90
2022-10-06T05:33:49.790Z,18.73
2022-10-06T05:36:21.985Z,16.90
2022-10-06T05:38:48.597Z,19.13
2022-10-06T05:41:26.059Z,22.25
2022-10-06T05:43:53.038Z,17.77
2022-10-06T05:46:22.204Z,18.27
2022-10-06T05:48:50.272Z,16.20
2022-10-06T05:51:18.822Z,19.50
2022-10-06T05:53:45.914Z,18.98
2022-10-06T05:56:15.277Z,15.40
2022-10-06T05:58:44.112Z,18.40
2022-10-06T06:01:12.030Z,13.27
2022-10-06T06:03:39.488Z,19.02
2022-10-06T06:06:17.686Z,15.07
2022-10-06T06:08:44.973Z,18.00
2022-10-06T06:11:12.093Z,19.50
2022-10-06T06:13:38.524Z,19.90
2022-10-06T06:16:06.662Z,18.02
2022-10-06T06:18:37.380Z,16.50
2022-10-06T06:21:06.087Z,16.98
2022-10-06T06:23:35.988Z,16.55
2022-10-06T06:26:13.998Z,19.27
2022-10-06T06:28:40.606Z,19.15
2022-10-06T06:31:20.082Z,17.42
2022-10-06T06:33:48.403Z,18.83
2022-10-06T06:36:30.364Z,17.40
2022-10-06T06:38:58.029Z,16.07
2022-10-06T06:41:29.836Z,17.27
2022-10-06T06:43:56.786Z,14.93
2022-10-06T06:46:25.794Z,18.27
2022-10-06T06:48:53.435Z,17.90
2022-10-06T06:51:20.200Z,17.33
2022-10-06T06:53:46.587Z,15.15
2022-10-06T06:56:12.961Z,17.08
2022-10-06T06:58:39.400Z,19.83
2022-10-06T07:01:11.328Z,17.25
2022-10-06T07:03:57.502Z,16.67
2022-10-06T07:06:27.811Z,15.63
2022-10-06T07:08:55.720Z,24.10
2022-10-06T07:11:24.890Z,15.98
2022-10-06T07:13:53.997Z,14.85
2022-10-06T07:16:22.330Z,16.20
2022-10-06T07:18:48.846Z,20.67
2022-10-06T07:21:15.287Z,18.10
2022-10-06T07:23:41.824Z,14.68
2022-10-06T07:26:08.249Z,11.60
2022-10-06T07:28:34.754Z,18.00
2022-10-06T07:31:01.296Z,19.20
2022-10-06T07:33:27.735Z,18.50
2022-10-06T07:35:54.252Z,16.50
2022-10-06T07:38:21.513Z,14.13
2022-10-06T07:41:18.404Z,12.47
2022-10-06T07:43:40.677Z,11.23
2022-10-06T07:46:11.319Z,14.75
2022-10-06T07:48:38.005Z,18.27
2022-10-06T07:51:12.194Z,15.15
2022-10-06T07:53:38.790Z,15.07
2022-10-06T07:56:06.616Z,13.38
2022-10-06T07:58:34.190Z,12.77
2022-10-06T08:01:12.492Z,13.77
2022-10-06T08:03:40.339Z,16.23
2022-10-06T08:06:07.607Z,15.03
2022-10-06T08:08:35.050Z,15.35
2022-10-06T08:11:02.081Z,16.55
2022-10-06T08:13:29.285Z,17.02
2022-10-06T08:15:55.771Z,12.85
2022-10-06T08:18:44.445Z,17.57
2022-10-06T08:21:19.147Z,17.60
2022-10-06T08:23:48.036Z,19.30
2022-10-06T08:26:16.080Z,18.20
2022-10-06T08:28:47.424Z,14.02
2022-10-06T08:31:14.995Z,16.50
2022-10-06T08:33:43.038Z,15.48
2022-10-06T08:36:12.209Z,16.13
2022-10-06T08:38:38.774Z,14.82
2022-10-06T08:41:26.089Z,15.57
2022-10-06T08:43:59.055Z,21.47
2022-10-06T08:46:32.669Z,12.63
2022-10-06T08:48:59.132Z,11.88
2022-10-06T08:51:50.845Z,13.23
2022-10-06T08:54:44.917Z,17.48
2022-10-06T08:57:53.166Z,15.53
2022-10-06T09:00:21.486Z,16.02
2022-10-06T09:02:50.071Z,13.68
2022-10-06T09:05:19.141Z,14.18
2022-10-06T09:07:56.835Z,12.55
2022-10-06T09:10:58.641Z,12.20
2022-10-06T09:13:34.589Z,12.82
2022-10-06T09:16:09.209Z,12.90
2022-10-06T09:19:06.786Z,14.68
2022-10-06T09:21:43.873Z,12.40
2022-10-06T09:24:16.909Z,13.50
2022-10-06T09:26:45.934Z,13.38
2022-10-06T09:29:13.684Z,12.60
2022-10-06T09:31:45.002Z,10.60
2022-10-06T09:34:18.454Z,12.48
2022-10-06T09:37:06.591Z,10.57
2022-10-06T09:39:38.447Z,12.45
2022-10-06T09:42:27.365Z,12.23
2022-10-06T09:45:01.070Z,11.48
2022-10-06T09:47:30.267Z,9.65
2022-10-06T09:50:24.197Z,26.00
2022-10-06T09:52:59.457Z,34.20
2022-10-06T09:55:28.693Z,17.23
2022-10-06T09:57:57.173Z,11.35
2022-10-06T10:00:32.429Z,11.93
2022-10-06T10:03:07.889Z,9.17
2022-10-06T10:05:37.655Z,10.43
2022-10-06T10:08:07.053Z,10.90
2022-10-06T10:10:33.487Z,12.93
2022-10-06T10:13:00.290Z,11.02
2022-10-06T10:15:48.875Z,11.97
2022-10-06T10:18:15.431Z,14.48
2022-10-06T10:20:52.147Z,14.93
2022-10-06T10:23:28.677Z,11.95
2022-10-06T10:26:15.403Z,14.85
2022-10-06T10:28:58.546Z,8.50
2022-10-06T10:31:40.972Z,14.05
2022-10-06T10:34:43.144Z,9.07
2022-10-06T10:37:16.267Z,7.78
2022-10-06T10:40:15.101Z,11.65
2022-10-06T10:43:09.828Z,8.70
2022-10-06T10:45:43.860Z,10.27
2022-10-06T10:48:24.130Z,11.07
2022-10-06T10:50:57.813Z,9.95
2022-10-06T10:53:37.657Z,8.70
2022-10-06T10:56:12.168Z,10.53
2022-10-06T10:58:43.944Z,9.40
2022-10-06T11:01:13.459Z,8.82
2022-10-06T11:03:40.007Z,10.30
2022-10-06T11:06:24.552Z,12.00
2022-10-06T11:09:07.002Z,8.53
2022-10-06T11:11:52.057Z,8.40
2022-10-06T11:14:38.526Z,9.02
2022-10-06T11:17:23.843Z,6.30
2022-10-06T11:20:08.012Z,7.68
2022-10-06T11:22:47.415Z,7.70
2022-10-06T11:25:16.536Z,19.45
2022-10-06T11:27:52.755Z,22.25
2022-10-06T11:30:21.469Z,11.45
2022-10-06T11:33:09.190Z,12.95
2022-10-06T11:35:38.428Z,16.07
2022-10-06T11:38:16.138Z,10.57
2022-10-06T11:41:09.403Z,8.07
2022-10-06T11:43:39.667Z,12.25
2022-10-06T11:46:27.391Z,12.50
2022-10-06T11:49:29.825Z,18.43
2022-10-06T11:52:00.286Z,26.30
2022-10-06T11:54:39.947Z,13.95
2022-10-06T11:57:30.346Z,15.80
2022-10-06T12:00:17.493Z,12.38
2022-10-06T12:02:46.154Z,12.67
2022-10-06T12:08:02.164Z,10.90
2022-10-06T12:10:28.482Z,13.60
2022-10-06T12:13:40.043Z,20.48
2022-10-06T12:17:09.464Z,9.43
2022-10-06T12:19:25.610Z,11.02
2022-10-06T12:21:54.755Z,9.13
2022-10-06T12:24:30.683Z,9.25
2022-10-06T12:27:25.870Z,10.77
2022-10-06T12:30:02.959Z,8.60
2022-10-06T12:32:48.619Z,8.00
2022-10-06T12:35:18.763Z,14.50
2022-10-06T12:37:53.115Z,7.32
2022-10-06T12:40:38.625Z,13.98
2022-10-06T12:43:14.186Z,21.80
2022-10-06T12:45:52.580Z,14.45
2022-10-06T12:48:31.250Z,13.98
2022-10-06T12:51:08.607Z,23.52
2022-10-06T12:53:52.105Z,23.15
2022-10-06T12:56:30.464Z,15.03
2022-10-06T12:58:56.910Z,22.38
2022-10-06T13:01:25.546Z,10.63
2022-10-06T13:03:52.922Z,13.10
2022-10-06T13:06:22.928Z,8.55
2022-10-06T13:09:14.070Z,8.80
2022-10-06T13:11:40.490Z,11.90
2022-10-06T13:14:12.724Z,8.88
2022-10-06T13:16:41.822Z,9.13
2022-10-06T13:19:27.389Z,7.90
2022-10-06T13:21:54.419Z,8.23
2022-10-06T13:24:26.285Z,9.10
2022-10-06T13:26:53.388Z,9.43
2022-10-06T13:29:22.729Z,9.38
2022-10-06T13:31:53.196Z,10.93
2022-10-06T13:34:38.120Z,9.87
2022-10-06T13:37:04.682Z,8.93
2022-10-06T13:39:31.174Z,7.93
2022-10-06T13:42:09.703Z,7.35
2022-10-06T13:44:38.674Z,11.73
2022-10-06T13:47:14.262Z,10.33
2022-10-06T13:49:53.448Z,8.38
2022-10-06T13:52:25.171Z,10.98
2022-10-06T13:54:57.507Z,8.20
2022-10-06T13:57:44.303Z,24.92
2022-10-06T14:00:14.818Z,18.83
2022-10-06T14:02:43.362Z,18.60
2022-10-06T14:05:24.924Z,8.48
2022-10-06T14:07:51.519Z,8.20
2022-10-06T14:10:31.918Z,8.65
2022-10-06T14:13:00.523Z,8.67
2022-10-06T14:15:30.679Z,8.25
2022-10-06T14:18:01.338Z,7.97
2022-10-06T14:20:37.744Z,10.95
2022-10-06T14:23:31.899Z,9.05
2022-10-06T14:25:58.782Z,10.10
2022-10-06T14:28:25.260Z,9.73
2022-10-06T14:30:51.758Z,9.60
2022-10-06T14:33:18.170Z,7.10
2022-10-06T14:35:44.672Z,7.40
2022-10-06T14:38:11.098Z,9.17
2022-10-06T14:40:41.194Z,9.15
2022-10-06T14:43:07.726Z,9.82
2022-10-06T14:45:34.415Z,10.82
2022-10-06T14:48:00.831Z,11.80
2022-10-06T14:50:27.259Z,19.03
2022-10-06T14:52:54.335Z,9.95
2022-10-06T14:55:20.765Z,8.38
2022-10-06T14:57:47.195Z,9.27
2022-10-06T15:00:13.786Z,6.97
2022-10-06T15:02:40.317Z,8.27
2022-10-06T15:05:07.099Z,8.55
2022-10-06T15:07:33.513Z,7.60
2022-10-06T15:09:59.878Z,7.28
2022-10-06T15:12:29.392Z,7.93
2022-10-06T15:14:58.191Z,9.03
2022-10-06T15:17:24.593Z,8.13
2022-10-06T15:19:51.018Z,7.53
2022-10-06T15:22:17.430Z,7.47
2022-10-06T15:24:43.851Z,9.88
2022-10-06T15:27:10.254Z,9.47
2022-10-06T15:29:36.671Z,7.68
2022-10-06T15:32:04.821Z,9.45
2022-10-06T15:34:32.648Z,7.97
2022-10-06T15:36:59.446Z,11.40
2022-10-06T15:39:28.530Z,8.77
2022-10-06T15:41:55.402Z,9.10
2022-10-06T15:44:22.217Z,10.82
2022-10-06T15:46:56.461Z,8.43
2022-10-06T15:49:25.029Z,8.77
2022-10-06T15:51:51.406Z,7.67
2022-10-06T15:54:21.066Z,8.95
2022-10-06T15:56:53.026Z,7.68
2022-10-06T15:59:19.907Z,9.13
2022-10-06T16:01:46.769Z,10.85
2022-10-06T16:04:16.409Z,8.97
2022-10-06T16:06:42.834Z,7.32
2022-10-06T16:09:12.770Z,7.90
2022-10-06T16:11:39.565Z,8.40
2022-10-06T16:14:07.490Z,7.65
2022-10-06T16:16:35.658Z,7.07
2022-10-06T16:19:03.690Z,7.60
2022-10-06T16:21:31.520Z,6.97
2022-10-06T16:23:58.406Z,8.85
2022-10-06T16:26:25.894Z,8.20
2022-10-06T16:28:52.966Z,9.80
2022-10-06T16:31:20.647Z,8.27
2022-10-06T16:33:47.510Z,6.43
2022-10-06T16:36:15.501Z,7.43
2022-10-06T16:38:42.832Z,7.32
2022-10-06T16:41:09.879Z,7.53
2022-10-06T16:43:38.772Z,7.97
2022-10-06T16:46:11.757Z,8.25
2022-10-06T16:48:41.520Z,9.52
2022-10-06T16:51:16.693Z,7.85
2022-10-06T16:53:44.417Z,10.80
2022-10-06T16:56:13.785Z,7.22
2022-10-06T16:58:43.111Z,9.30
2022-10-06T17:01:11.012Z,8.52
2022-10-06T17:03:38.275Z,7.38
2022-10-06T17:06:13.755Z,12.03
2022-10-06T17:08:41.028Z,7.88
2022-10-06T17:11:16.881Z,8.32
2022-10-06T17:13:45.534Z,10.35
2022-10-06T17:16:16.020Z,6.28
2022-10-06T17:18:42.836Z,8.40
2022-10-06T17:21:32.358Z,8.40
2022-10-06T17:24:00.165Z,8.82
2022-10-06T17:26:37.785Z,11.02
2022-10-06T17:29:06.996Z,13.20
2022-10-06T17:31:39.171Z,11.97
2022-10-06T17:34:08.187Z,10.23
2022-10-06T17:36:34.958Z,11.25
2022-10-06T17:39:02.698Z,9.02
2022-10-06T17:41:35.378Z,10.93
2022-10-06T17:44:05.328Z,10.53
2022-10-06T17:46:33.874Z,10.00
2022-10-06T17:49:07.378Z,9.20
2022-10-06T17:51:36.190Z,8.57
2022-10-06T17:54:05.535Z,10.98
2022-10-06T17:56:33.919Z,9.37
2022-10-06T17:59:10.522Z,10.32
2022-10-06T18:01:37.378Z,9.90
2022-10-06T18:04:06.692Z,8.77
2022-10-06T18:06:35.386Z,9.57
2022-10-06T18:09:03.309Z,13.00
2022-10-06T18:11:30.992Z,12.60
2022-10-06T18:13:58.153Z,12.88
2022-10-06T18:16:26.486Z,10.80
2022-10-06T18:18:54.953Z,11.23
2022-10-06T18:21:24.815Z,10.40
2022-10-06T18:23:51.550Z,13.60
2022-10-06T18:26:20.285Z,10.77
2022-10-06T18:28:49.660Z,16.23
2022-10-06T18:31:17.728Z,10.00
2022-10-06T18:36:10.429Z,12.27
2022-10-06T18:36:32.401Z,13.05
2022-10-06T18:38:58.823Z,12.32
2022-10-06T18:41:26.736Z,16.58
2022-10-06T18:43:56.380Z,18.80
2022-10-06T18:46:23.194Z,19.90
2022-10-06T18:48:50.075Z,16.05
2022-10-06T18:51:16.515Z,16.20
2022-10-06T18:53:42.940Z,14.20
2022-10-06T18:56:09.322Z,12.32
2022-10-06T18:58:39.970Z,12.13
2022-10-06T19:01:07.055Z,12.35
2022-10-06T19:03:33.572Z,12.57
2022-10-06T19:05:59.954Z,13.02
2022-10-06T19:08:26.764Z,13.15
2022-10-06T19:10:53.258Z,16.67
2022-10-06T19:13:19.651Z,12.82
2022-10-06T19:15:51.937Z,13.13
2022-10-06T19:18:18.382Z,10.77
2022-10-06T19:20:50.746Z,11.15
2022-10-06T19:23:17.145Z,12.97
2022-10-06T19:25:43.590Z,12.73
2022-10-06T19:28:10.011Z,10.82
2022-10-06T19:30:36.492Z,12.85
2022-10-06T19:33:02.982Z,13.00
2022-10-06T19:35:29.394Z,16.97
2022-10-06T19:37:55.797Z,14.20
2022-10-06T19:40:23.249Z,15.80
2022-10-06T19:42:49.612Z,15.70
2022-10-06T19:45:17.321Z,13.60
2022-10-06T19:47:44.120Z,12.33
2022-10-06T19:50:12.765Z,13.27
2022-10-06T19:52:40.600Z,13.43
2022-10-06T19:55:07.248Z,14.73
2022-10-06T19:57:33.999Z,14.63
2022-10-06T20:00:00.706Z,15.13
2022-10-06T20:02:27.157Z,12.55
2022-10-06T20:04:53.719Z,16.25
2022-10-06T20:07:20.127Z,16.08
2022-10-06T20:09:46.573Z,16.05
2022-10-06T20:12:12.972Z,14.57
2022-10-06T20:14:39.508Z,15.60
2022-10-06T20:17:06.041Z,15.43
2022-10-06T20:19:32.541Z,13.00
2022-10-06T20:21:58.980Z,16.88
2022-10-06T20:24:25.390Z,16.87
2022-10-06T20:26:53.430Z,14.52
2022-10-06T20:29:25.644Z,18.10
2022-10-06T20:31:54.815Z,13.30
2022-10-06T20:34:24.107Z,12.88
2022-10-06T20:36:55.703Z,19.27
2022-10-06T20:39:23.679Z,16.70
2022-10-06T20:41:50.228Z,14.07
2022-10-06T20:44:16.702Z,14.75
2022-10-06T20:46:43.208Z,18.27
2022-10-06T20:49:12.142Z,13.73
2022-10-06T20:51:39.904Z,14.40
2022-10-06T20:54:06.468Z,14.75
2022-10-06T20:56:35.113Z,14.82
2022-10-06T20:59:02.587Z,17.08
2022-10-06T21:01:29.441Z,16.23
2022-10-06T21:03:55.903Z,13.40
2022-10-06T21:06:23.763Z,17.60
2022-10-06T21:08:51.448Z,14.20
2022-10-06T21:11:20.844Z,16.67
2022-10-06T21:13:47.944Z,16.10
2022-10-06T21:16:14.431Z,15.93
2022-10-06T21:18:40.862Z,16.45
2022-10-06T21:21:07.287Z,15.63
2022-10-06T21:23:39.844Z,14.02
2022-10-06T21:26:07.635Z,16.30
2022-10-06T21:28:35.407Z,17.75
2022-10-06T21:31:03.531Z,17.67
2022-10-06T21:33:30.667Z,13.70
2022-10-06T21:36:01.079Z,17.85
2022-10-06T21:38:30.197Z,16.93
2022-10-06T21:41:02.238Z,18.30
2022-10-06T21:43:28.663Z,18.33
2022-10-06T21:46:17.231Z,18.27
2022-10-06T21:48:41.499Z,17.30
2022-10-06T21:51:07.966Z,20.10
2022-10-06T21:53:34.447Z,18.35
2022-10-06T21:56:00.893Z,18.92
2022-10-06T21:58:27.343Z,21.25
2022-10-06T22:00:57.934Z,19.35
2022-10-06T22:03:24.634Z,19.80
2022-10-06T22:05:51.240Z,17.60
2022-10-06T22:08:17.625Z,17.63
2022-10-06T22:10:44.020Z,20.00
2022-10-06T22:13:10.398Z,19.23
2022-10-06T22:15:37.206Z,16.47
2022-10-06T22:18:03.791Z,20.15
2022-10-06T22:20:30.221Z,22.42
2022-10-06T22:22:59.316Z,19.98
2022-10-06T22:25:27.706Z,19.75
2022-10-06T22:27:54.127Z,21.40
2022-10-06T22:30:20.549Z,19.55
2022-10-06T22:32:46.951Z,18.80
2022-10-06T22:35:13.464Z,18.20
2022-10-06T22:37:39.871Z,19.08
2022-10-06T22:40:07.868Z,23.63
2022-10-06T22:42:34.375Z,18.48
2022-10-06T22:45:00.819Z,19.98
2022-10-06T22:47:27.235Z,16.23
2022-10-06T22:49:53.652Z,18.13
2022-10-06T22:52:20.403Z,20.47
2022-10-06T22:54:46.785Z,20.35
2022-10-06T22:57:13.300Z,17.77
2022-10-06T22:59:39.688Z,21.80
2022-10-06T23:02:06.477Z,25.38
2022-10-06T23:04:32.873Z,19.57
2022-10-06T23:06:59.252Z,17.90
2022-10-06T23:09:25.672Z,19.58
2022-10-06T23:11:52.073Z,19.55
2022-10-06T23:14:18.626Z,21.75
2022-10-06T23:16:45.122Z,15.93
2022-10-06T23:19:11.591Z,18.75
2022-10-06T23:21:38.009Z,19.75
2022-10-06T23:24:04.450Z,22.30
2022-10-06T23:26:32.078Z,18.35
2022-10-06T23:29:00.371Z,17.90
2022-10-06T23:31:28.641Z,20.45
2022-10-06T23:33:55.536Z,19.65
2022-10-06T23:36:21.968Z,19.95
2022-10-06T23:38:48.515Z,20.73
2022-10-06T23:41:15.291Z,21.07
2022-10-06T23:43:41.738Z,19.73
2022-10-06T23:46:08.539Z,22.58
2022-10-06T23:48:35.072Z,18.90
2022-10-06T23:51:04.457Z,19.52
2022-10-06T23:53:31.405Z,20.23
2022-10-06T23:55:58.176Z,21.63
2022-10-06T23:58:25.448Z,20.48
